Time;durP1;ratioP1;P1;durP2;ratioP2;P2;SDS_P1;SDS_P2;PMS_P1;PMS_P2;Temp;Humidity;BMP_temperature;BMP_pressure;BME280_temperature;BME280_humidity;BME280_pressure;Samples;Min_cycle;Max_cycle;Signal;HPM_P1;HPM_P2
2021/01/04 00:02:07;;;;;;;0.30;0.30;;;;;;;;;;4977403;28;20033;-80
2021/01/04 00:04:41;;;;;;;0.22;0.22;;;;;;;;;;4994366;28;20022;-80
2021/01/04 00:07:21;;;;;;;0.30;0.30;;;;;;;;;;5002825;28;20014;-80
2021/01/04 00:09:48;;;;;;;0.30;0.30;;;;;;;;;;4986935;28;20017;-80
2021/01/04 00:12:25;;;;;;;0.30;0.30;;;;;;;;;;4995277;28;20023;-80
2021/01/04 00:15:09;;;;;;;0.30;0.30;;;;;;;;;;4984738;28;20026;-80
2021/01/04 00:17:34;;;;;;;0.30;0.30;;;;;;;;;;4978011;28;20029;-79
2021/01/04 00:20:03;;;;;;;0.30;0.30;;;;;;;;;;4987618;28;20019;-79
2021/01/04 00:22:30;;;;;;;0.30;0.30;;;;;;;;;;5004326;28;20282;-81
2021/01/04 00:25:06;;;;;;;0.30;0.30;;;;;;;;;;5012442;23;20238;-81
2021/01/04 00:27:36;;;;;;;0.30;0.30;;;;;;;;;;4923579;29;20087;-80
2021/01/04 00:30:08;;;;;;;0.30;0.30;;;;;;;;;;4943240;29;20032;-81
2021/01/04 00:32:34;;;;;;;0.30;0.30;;;;;;;;;;4932444;29;20020;-79
2021/01/04 00:35:00;;;;;;;0.30;0.30;;;;;;;;;;4909578;29;20119;-79
2021/01/04 00:37:32;;;;;;;0.20;0.20;;;;;;;;;;4918880;29;20096;-80
2021/01/04 00:40:00;;;;;;;0.30;0.30;;;;;;;;;;4935295;29;20032;-79
2021/01/04 00:42:36;;;;;;;0.30;0.30;;;;;;;;;;4932336;29;20067;-79
2021/01/04 00:45:04;;;;;;;0.30;0.30;;;;;;;;;;4913079;29;20028;-79
2021/01/04 00:47:32;;;;;;;0.20;0.20;;;;;;;;;;4915437;29;20024;-79
2021/01/04 00:50:08;;;;;;;0.30;0.30;;;;;;;;;;4931407;29;20020;-79
2021/01/04 00:52:39;;;;;;;0.37;0.37;;;;;;;;;;4935645;29;20016;-80
2021/01/04 00:55:07;;;;;;;0.30;0.30;;;;;;;;;;4935325;29;20291;-80
2021/01/04 00:57:35;;;;;;;0.30;0.30;;;;;;;;;;4938420;29;20043;-80
2021/01/04 01:00:04;;;;;;;0.30;0.30;;;;;;;;;;4939940;29;20047;-79
2021/01/04 01:02:43;;;;;;;0.20;0.20;;;;;;;;;;4933476;29;20110;-79
2021/01/04 01:05:16;;;;;;;0.30;0.30;;;;;;;;;;4909359;29;20035;-78
2021/01/04 01:07:41;;;;;;;0.30;0.30;;;;;;;;;;4886811;29;20079;-77
2021/01/04 01:10:07;;;;;;;0.30;0.30;;;;;;;;;;4911223;29;20532;-78
2021/01/04 01:12:47;;;;;;;0.30;0.30;;;;;;;;;;4909622;29;20320;-79
2021/01/04 01:15:15;;;;;;;0.30;0.30;;;;;;;;;;4924560;29;20028;-79
2021/01/04 01:17:44;;;;;;;0.30;0.30;;;;;;;;;;4899221;29;20012;-80
2021/01/04 01:20:10;;;;;;;0.30;0.30;;;;;;;;;;4908168;29;20087;-79
2021/01/04 01:22:36;;;;;;;0.20;0.20;;;;;;;;;;4902574;29;20568;-79
2021/01/04 01:25:04;;;;;;;0.30;0.30;;;;;;;;;;4921898;29;20045;-80
2021/01/04 01:27:42;;;;;;;0.30;0.30;;;;;;;;;;4907847;29;20035;-79
2021/01/04 01:30:07;;;;;;;0.20;0.20;;;;;;;;;;4920370;29;20044;-79
2021/01/04 01:32:32;;;;;;;0.20;0.20;;;;;;;;;;4918872;29;20055;-78
2021/01/04 01:34:58;;;;;;;0.30;0.30;;;;;;;;;;4924065;29;20031;-80
2021/01/04 01:37:23;;;;;;;0.30;0.30;;;;;;;;;;4925259;29;20792;-79
2021/01/04 01:40:07;;;;;;;0.20;0.20;;;;;;;;;;4925175;29;20059;-79
2021/01/04 01:42:51;;;;;;;0.30;0.30;;;;;;;;;;4921310;29;20400;-79
2021/01/04 01:45:20;;;;;;;0.30;0.30;;;;;;;;;;4927869;29;20433;-79
2021/01/04 01:47:47;;;;;;;0.25;0.25;;;;;;;;;;4918014;29;20028;-79
2021/01/04 01:50:33;;;;;;;0.20;0.20;;;;;;;;;;4915292;29;20025;-79
2021/01/04 01:52:58;;;;;;;0.30;0.30;;;;;;;;;;4908973;29;20556;-79
2021/01/04 01:55:27;;;;;;;0.30;0.30;;;;;;;;;;4918391;29;20037;-78
2021/01/04 01:57:59;;;;;;;0.20;0.20;;;;;;;;;;4903010;29;20275;-78
2021/01/04 02:00:25;;;;;;;0.30;0.30;;;;;;;;;;4900008;29;20037;-78
2021/01/04 02:03:02;;;;;;;0.30;0.30;;;;;;;;;;4905324;29;20381;-79
2021/01/04 02:05:33;;;;;;;0.30;0.30;;;;;;;;;;4923486;29;20020;-79
2021/01/04 02:08:03;;;;;;;0.20;0.20;;;;;;;;;;4939744;29;20022;-79
2021/01/04 02:10:30;;;;;;;0.30;0.30;;;;;;;;;;4942834;29;20001;-78
2021/01/04 02:12:56;;;;;;;0.30;0.30;;;;;;;;;;4941003;29;20027;-79
2021/01/04 02:15:42;;;;;;;0.30;0.30;;;;;;;;;;4936842;29;20024;-79
2021/01/04 02:18:13;;;;;;;0.30;0.30;;;;;;;;;;4926766;29;20012;-78
2021/01/04 02:21:11;;;;;;;0.30;0.30;;;;;;;;;;4923974;29;20435;-78
2021/01/04 02:23:43;;;;;;;0.30;0.30;;;;;;;;;;4908010;29;20139;-79
2021/01/04 02:26:10;;;;;;;0.30;0.30;;;;;;;;;;4901418;29;20055;-79
2021/01/04 02:28:37;;;;;;;0.30;0.30;;;;;;;;;;4901753;29;20495;-79
2021/01/04 02:31:02;;;;;;;0.30;0.30;;;;;;;;;;4917462;29;20438;-79
2021/01/04 02:33:27;;;;;;;0.28;0.28;;;;;;;;;;4917898;29;20035;-78
2021/01/04 02:35:53;;;;;;;0.23;0.23;;;;;;;;;;4918024;29;20059;-79
2021/01/04 02:38:23;;;;;;;0.30;0.30;;;;;;;;;;4917708;29;20585;-77
2021/01/04 02:40:49;;;;;;;0.30;0.30;;;;;;;;;;4914876;29;20035;-79
2021/01/04 02:43:14;;;;;;;0.30;0.30;;;;;;;;;;4895075;29;20028;-79
2021/01/04 02:45:39;;;;;;;0.30;0.30;;;;;;;;;;4918346;29;20132;-78
2021/01/04 02:48:08;;;;;;;0.30;0.30;;;;;;;;;;4918998;29;20484;-79
2021/01/04 02:50:39;;;;;;;0.30;0.30;;;;;;;;;;4920647;29;20469;-79
2021/01/04 02:53:15;;;;;;;0.30;0.30;;;;;;;;;;4918411;29;20022;-78
2021/01/04 02:55:43;;;;;;;0.30;0.30;;;;;;;;;;4917295;29;20104;-78
2021/01/04 02:58:20;;;;;;;0.30;0.30;;;;;;;;;;4917166;29;20036;-78
2021/01/04 03:00:47;;;;;;;0.30;0.30;;;;;;;;;;4901396;29;20047;-79
2021/01/04 03:03:12;;;;;;;0.30;0.30;;;;;;;;;;4901671;29;20060;-79
2021/01/04 03:05:37;;;;;;;0.30;0.30;;;;;;;;;;4898433;29;20024;-79
2021/01/04 03:08:03;;;;;;;0.30;0.30;;;;;;;;;;4898965;29;20035;-79
2021/01/04 03:10:29;;;;;;;0.30;0.30;;;;;;;;;;4894889;29;20071;-79
2021/01/04 03:13:09;;;;;;;0.30;0.30;;;;;;;;;;4913327;29;20099;-79
2021/01/04 03:15:34;;;;;;;0.30;0.30;;;;;;;;;;4901968;29;20016;-79
2021/01/04 03:18:18;;;;;;;0.30;0.30;;;;;;;;;;4918618;29;20529;-79
2021/01/04 03:20:43;;;;;;;0.30;0.30;;;;;;;;;;4916778;29;20016;-79
2021/01/04 03:23:09;;;;;;;0.30;0.30;;;;;;;;;;4917314;29;20040;-79
2021/01/04 03:25:39;;;;;;;0.30;0.30;;;;;;;;;;4945206;29;20421;-79
2021/01/04 03:28:05;;;;;;;0.30;0.30;;;;;;;;;;4920038;29;20024;-79
2021/01/04 03:30:30;;;;;;;0.35;0.35;;;;;;;;;;4922769;29;20364;-79
2021/01/04 03:32:56;;;;;;;0.30;0.30;;;;;;;;;;4938749;29;20154;-79
2021/01/04 03:35:22;;;;;;;0.30;0.30;;;;;;;;;;4939252;29;20043;-79
2021/01/04 03:37:47;;;;;;;0.30;0.30;;;;;;;;;;4939519;29;20026;-79
2021/01/04 03:40:12;;;;;;;0.30;0.30;;;;;;;;;;4920566;29;20096;-79
2021/01/04 03:42:38;;;;;;;0.30;0.30;;;;;;;;;;4939285;29;20254;-79
2021/01/04 03:45:04;;;;;;;0.30;0.30;;;;;;;;;;4939387;29;20023;-79
2021/01/04 03:47:29;;;;;;;0.30;0.30;;;;;;;;;;4920124;29;20035;-79
2021/01/04 03:49:55;;;;;;;0.30;0.30;;;;;;;;;;4904447;29;20023;-79
2021/01/04 03:52:20;;;;;;;0.30;0.30;;;;;;;;;;4946328;29;20114;-80
2021/01/04 03:54:45;;;;;;;0.30;0.30;;;;;;;;;;4968308;29;20031;-80
2021/01/04 03:57:10;;;;;;;0.30;0.30;;;;;;;;;;4947359;29;20279;-80
2021/01/04 03:59:36;;;;;;;0.30;0.30;;;;;;;;;;4930535;29;20867;-80
2021/01/04 04:02:02;;;;;;;0.30;0.30;;;;;;;;;;4948034;29;20035;-80
2021/01/04 04:04:27;;;;;;;0.30;0.30;;;;;;;;;;4950800;29;20027;-80
2021/01/04 04:06:52;;;;;;;0.30;0.30;;;;;;;;;;4950669;29;20015;-79
2021/01/04 04:09:18;;;;;;;0.30;0.30;;;;;;;;;;4942322;29;20031;-79
2021/01/04 04:11:44;;;;;;;0.30;0.30;;;;;;;;;;4936331;29;20016;-79
2021/01/04 04:14:09;;;;;;;0.30;0.30;;;;;;;;;;4920868;29;20066;-79
2021/01/04 04:16:35;;;;;;;0.30;0.30;;;;;;;;;;4919354;29;20023;-81
2021/01/04 04:19:00;;;;;;;0.30;0.30;;;;;;;;;;4938148;29;20468;-81
2021/01/04 04:21:25;;;;;;;0.30;0.30;;;;;;;;;;4956539;29;20086;-81
2021/01/04 04:23:51;;;;;;;0.25;0.25;;;;;;;;;;4971492;29;20365;-81
2021/01/04 04:26:17;;;;;;;0.30;0.30;;;;;;;;;;4932297;29;20045;-81
2021/01/04 04:28:42;;;;;;;0.30;0.30;;;;;;;;;;4914734;29;20035;-81
2021/01/04 04:31:07;;;;;;;0.30;0.30;;;;;;;;;;4915396;29;20017;-81
2021/01/04 04:33:32;;;;;;;0.37;0.37;;;;;;;;;;4932885;29;20028;-81
2021/01/04 04:35:57;;;;;;;0.30;0.30;;;;;;;;;;4929542;29;20272;-80
2021/01/04 04:38:23;;;;;;;0.20;0.20;;;;;;;;;;4912444;29;20308;-81
2021/01/04 04:40:49;;;;;;;0.30;0.30;;;;;;;;;;4933991;29;20280;-81
2021/01/04 04:43:15;;;;;;;0.30;0.30;;;;;;;;;;4932883;29;20020;-81
2021/01/04 04:45:40;;;;;;;0.30;0.30;;;;;;;;;;4917046;29;20040;-81
2021/01/04 04:48:14;;;;;;;0.30;0.30;;;;;;;;;;4932994;29;20071;-80
2021/01/04 04:50:58;;;;;;;0.40;0.40;;;;;;;;;;4932943;29;20268;-80
2021/01/04 04:53:24;;;;;;;0.30;0.30;;;;;;;;;;4935171;29;20017;-81
2021/01/04 04:55:52;;;;;;;0.30;0.30;;;;;;;;;;4932022;29;20104;-80
2021/01/04 04:58:30;;;;;;;0.30;0.30;;;;;;;;;;4931740;29;20028;-80
2021/01/04 05:01:21;;;;;;;0.20;0.20;;;;;;;;;;4930352;29;20055;-80
2021/01/04 05:04:05;;;;;;;0.30;0.30;;;;;;;;;;4943251;29;20072;-80
2021/01/04 05:06:36;;;;;;;0.30;0.30;;;;;;;;;;4932256;29;20027;-79
2021/01/04 05:09:01;;;;;;;0.30;0.30;;;;;;;;;;4916155;29;20032;-80
2021/01/04 05:11:30;;;;;;;0.30;0.30;;;;;;;;;;4931457;29;20031;-80
2021/01/04 05:13:56;;;;;;;0.30;0.30;;;;;;;;;;4929773;29;20292;-80
2021/01/04 05:16:27;;;;;;;0.30;0.30;;;;;;;;;;4929211;29;20032;-79
2021/01/04 05:19:06;;;;;;;0.30;0.30;;;;;;;;;;4925264;29;20264;-80
2021/01/04 05:21:51;;;;;;;0.30;0.30;;;;;;;;;;4925500;29;20028;-79
2021/01/04 05:24:25;;;;;;;0.32;0.32;;;;;;;;;;4930998;29;20055;-80
2021/01/04 05:27:09;;;;;;;0.30;0.30;;;;;;;;;;4964089;29;20015;-80
2021/01/04 05:29:48;;;;;;;0.30;0.30;;;;;;;;;;4946148;29;20099;-80
2021/01/04 05:32:17;;;;;;;0.30;0.30;;;;;;;;;;4927299;29;20022;-79
2021/01/04 05:34:59;;;;;;;0.40;0.40;;;;;;;;;;4911179;29;20035;-80
2021/01/04 05:38:03;;;;;;;0.30;0.30;;;;;;;;;;4944280;29;20492;-80
2021/01/04 05:40:34;;;;;;;0.30;0.30;;;;;;;;;;4877909;29;21436;-79
2021/01/04 05:43:02;;;;;;;0.30;0.30;;;;;;;;;;4884110;29;20108;-79
2021/01/04 05:45:27;;;;;;;0.30;0.30;;;;;;;;;;4916101;29;20369;-80
2021/01/04 05:48:04;;;;;;;0.22;0.22;;;;;;;;;;4949221;29;20051;-80
2021/01/04 05:50:35;;;;;;;0.30;0.30;;;;;;;;;;4917072;29;20097;-80
2021/01/04 05:53:00;;;;;;;0.40;0.40;;;;;;;;;;4942308;29;20072;-79
2021/01/04 05:55:26;;;;;;;0.20;0.20;;;;;;;;;;4959545;29;20476;-79
2021/01/04 05:57:53;;;;;;;0.30;0.30;;;;;;;;;;4926373;29;20030;-79
2021/01/04 06:00:28;;;;;;;0.30;0.30;;;;;;;;;;4942617;29;20427;-79
2021/01/04 06:03:02;;;;;;;0.30;0.30;;;;;;;;;;4939449;29;20023;-79
2021/01/04 06:05:28;;;;;;;0.40;0.40;;;;;;;;;;4934431;29;20056;-79
2021/01/04 06:07:54;;;;;;;0.25;0.25;;;;;;;;;;4943284;29;20027;-79
2021/01/04 06:10:23;;;;;;;0.30;0.30;;;;;;;;;;4928918;29;20023;-79
2021/01/04 06:12:48;;;;;;;0.40;0.40;;;;;;;;;;4960637;29;20267;-79
2021/01/04 06:15:23;;;;;;;0.30;0.30;;;;;;;;;;4947601;29;20027;-80
2021/01/04 06:17:49;;;;;;;0.32;0.32;;;;;;;;;;4932119;29;20059;-80
2021/01/04 06:20:24;;;;;;;0.30;0.30;;;;;;;;;;4947948;29;20019;-79
2021/01/04 06:22:49;;;;;;;0.30;0.30;;;;;;;;;;4931454;29;20027;-80
2021/01/04 06:25:15;;;;;;;0.40;0.40;;;;;;;;;;4943111;29;20051;-80
2021/01/04 06:27:41;;;;;;;0.25;0.25;;;;;;;;;;4940669;29;20031;-80
2021/01/04 06:30:21;;;;;;;0.20;0.20;;;;;;;;;;4945441;29;20024;-79
2021/01/04 06:32:47;;;;;;;0.30;0.30;;;;;;;;;;4921600;29;20071;-79
2021/01/04 06:35:15;;;;;;;0.30;0.30;;;;;;;;;;4927354;29;20019;-80
2021/01/04 06:37:40;;;;;;;0.30;0.30;;;;;;;;;;4945920;29;20030;-79
2021/01/04 06:40:09;;;;;;;0.30;0.30;;;;;;;;;;4940326;29;20032;-80
2021/01/04 06:42:42;;;;;;;0.40;0.40;;;;;;;;;;4942239;29;20302;-79
2021/01/04 06:45:26;;;;;;;0.30;0.30;;;;;;;;;;4940768;29;20034;-79
2021/01/04 06:47:54;;;;;;;0.30;0.30;;;;;;;;;;4939801;29;20023;-79
2021/01/04 06:50:38;;;;;;;0.30;0.30;;;;;;;;;;4922895;29;20498;-79
2021/01/04 06:53:12;;;;;;;0.40;0.40;;;;;;;;;;4936964;29;20083;-79
2021/01/04 06:55:37;;;;;;;0.30;0.30;;;;;;;;;;4944806;29;20031;-80
2021/01/04 06:58:20;;;;;;;0.40;0.40;;;;;;;;;;4949114;29;20130;-80
2021/01/04 07:00:52;;;;;;;0.30;0.30;;;;;;;;;;4947302;29;20050;-80
2021/01/04 07:03:17;;;;;;;0.30;0.30;;;;;;;;;;4947929;29;20074;-80
2021/01/04 07:05:58;;;;;;;0.30;0.30;;;;;;;;;;4947511;29;20024;-80
2021/01/04 07:08:49;;;;;;;0.40;0.40;;;;;;;;;;4931873;29;20327;-80
2021/01/04 07:11:15;;;;;;;0.30;0.30;;;;;;;;;;4928286;29;20036;-80
2021/01/04 07:14:00;;;;;;;0.20;0.20;;;;;;;;;;4942367;29;20044;-79
2021/01/04 07:16:31;;;;;;;0.30;0.30;;;;;;;;;;4947304;29;20032;-81
2021/01/04 07:19:05;;;;;;;0.38;0.38;;;;;;;;;;4953233;29;20038;-80
2021/01/04 07:21:42;;;;;;;0.30;0.30;;;;;;;;;;4951131;29;20043;-80
2021/01/04 07:24:10;;;;;;;0.30;0.30;;;;;;;;;;4924394;29;20066;-79
2021/01/04 07:26:59;;;;;;;0.40;0.40;;;;;;;;;;4942906;29;20027;-79
2021/01/04 07:29:40;;;;;;;0.30;0.30;;;;;;;;;;4948960;29;20045;-79
2021/01/04 07:32:08;;;;;;;0.30;0.30;;;;;;;;;;4941099;29;20034;-79
2021/01/04 07:34:35;;;;;;;0.30;0.30;;;;;;;;;;4960612;29;20077;-79
2021/01/04 07:37:19;;;;;;;0.30;0.30;;;;;;;;;;4923324;29;20039;-79
2021/01/04 07:39:46;;;;;;;0.32;0.32;;;;;;;;;;4938640;29;20032;-79
2021/01/04 07:42:30;;;;;;;0.32;0.32;;;;;;;;;;4926218;29;20094;-79
2021/01/04 07:45:18;;;;;;;0.30;0.30;;;;;;;;;;4957953;29;20031;-78
2021/01/04 07:48:01;;;;;;;0.30;0.30;;;;;;;;;;4957449;29;20031;-79
2021/01/04 07:50:39;;;;;;;0.30;0.30;;;;;;;;;;4956889;29;20079;-78
2021/01/04 07:53:36;;;;;;;0.30;0.30;;;;;;;;;;4956056;29;20019;-79
2021/01/04 07:56:21;;;;;;;0.30;0.30;;;;;;;;;;4913040;29;20031;-78
2021/01/04 07:59:05;;;;;;;0.30;0.30;;;;;;;;;;4956539;29;20074;-79
2021/01/04 08:01:49;;;;;;;0.30;0.30;;;;;;;;;;4956919;29;20392;-78
2021/01/04 08:04:34;;;;;;;0.25;0.25;;;;;;;;;;4955031;29;20511;-78
2021/01/04 08:07:18;;;;;;;0.30;0.30;;;;;;;;;;4937336;29;20070;-78
2021/01/04 08:09:54;;;;;;;0.40;0.40;;;;;;;;;;4943908;29;20357;-79
2021/01/04 08:12:30;;;;;;;0.32;0.32;;;;;;;;;;4949095;29;20015;-80
2021/01/04 08:14:58;;;;;;;0.40;0.40;;;;;;;;;;4928306;29;20496;-79
2021/01/04 08:17:36;;;;;;;0.38;0.38;;;;;;;;;;4941613;29;20071;-79
2021/01/04 08:20:02;;;;;;;0.30;0.30;;;;;;;;;;4946068;29;20023;-80
2021/01/04 08:22:46;;;;;;;0.30;0.30;;;;;;;;;;4944885;29;20026;-79
2021/01/04 08:25:11;;;;;;;0.20;0.20;;;;;;;;;;4960012;28;20429;-78
2021/01/04 08:27:51;;;;;;;0.30;0.30;;;;;;;;;;4941074;29;20029;-78
2021/01/04 08:30:18;;;;;;;0.28;0.28;;;;;;;;;;4941526;29;20023;-78
2021/01/04 08:32:55;;;;;;;0.30;0.30;;;;;;;;;;4923493;29;20020;-79
2021/01/04 08:35:26;;;;;;;0.30;0.30;;;;;;;;;;4950967;29;20031;-78
2021/01/04 08:37:51;;;;;;;0.30;0.30;;;;;;;;;;4964265;29;20027;-78
2021/01/04 08:40:27;;;;;;;0.30;0.30;;;;;;;;;;4940067;29;20030;-78
2021/01/04 08:43:19;;;;;;;0.30;0.30;;;;;;;;;;4933061;29;20099;-77
2021/01/04 08:45:45;;;;;;;0.32;0.32;;;;;;;;;;4957403;29;20035;-77
2021/01/04 08:48:11;;;;;;;0.30;0.30;;;;;;;;;;4957830;29;20063;-78
2021/01/04 08:50:37;;;;;;;0.30;0.30;;;;;;;;;;4965613;28;20039;-76
2021/01/04 08:53:13;;;;;;;0.30;0.30;;;;;;;;;;4963914;28;20027;-77
2021/01/04 08:55:39;;;;;;;0.30;0.30;;;;;;;;;;4962584;28;20051;-77
2021/01/04 08:58:19;;;;;;;0.30;0.30;;;;;;;;;;4946926;29;20018;-78
2021/01/04 09:00:45;;;;;;;0.30;0.30;;;;;;;;;;4973466;28;20027;-78
2021/01/04 09:03:19;;;;;;;0.35;0.35;;;;;;;;;;4943117;29;20499;-78
2021/01/04 09:05:44;;;;;;;0.20;0.20;;;;;;;;;;4926495;29;20106;-78
2021/01/04 09:08:10;;;;;;;0.30;0.30;;;;;;;;;;4942410;29;20023;-78
2021/01/04 09:10:39;;;;;;;0.30;0.30;;;;;;;;;;4941942;29;20031;-78
2021/01/04 09:13:16;;;;;;;0.30;0.30;;;;;;;;;;4941928;29;20031;-77
2021/01/04 09:15:41;;;;;;;0.30;0.30;;;;;;;;;;4943068;29;20026;-78
2021/01/04 09:18:26;;;;;;;0.30;0.30;;;;;;;;;;4944805;29;20023;-78
2021/01/04 09:20:53;;;;;;;0.32;0.32;;;;;;;;;;4961016;29;20547;-78
2021/01/04 09:23:18;;;;;;;0.40;0.40;;;;;;;;;;5012919;23;20078;-80
2021/01/04 09:25:46;;;;;;;0.32;0.32;;;;;;;;;;4960259;28;20039;-77
2021/01/04 09:28:13;;;;;;;0.30;0.30;;;;;;;;;;4959930;29;20055;-78
2021/01/04 09:30:38;;;;;;;0.30;0.30;;;;;;;;;;4941292;29;20015;-77
2021/01/04 09:33:04;;;;;;;0.30;0.30;;;;;;;;;;4957288;29;20031;-78
2021/01/04 09:35:29;;;;;;;0.30;0.30;;;;;;;;;;4958268;29;20036;-78
2021/01/04 09:38:01;;;;;;;0.30;0.30;;;;;;;;;;4957000;28;20031;-78
2021/01/04 09:40:27;;;;;;;0.30;0.30;;;;;;;;;;4941554;29;20392;-77
2021/01/04 09:43:01;;;;;;;0.30;0.30;;;;;;;;;;4940299;29;20117;-76
2021/01/04 09:45:27;;;;;;;0.30;0.30;;;;;;;;;;4941022;29;20027;-77
2021/01/04 09:47:53;;;;;;;0.30;0.30;;;;;;;;;;4956787;29;20122;-77
2021/01/04 09:50:22;;;;;;;0.30;0.30;;;;;;;;;;4941684;29;20119;-77
2021/01/04 09:53:07;;;;;;;0.30;0.30;;;;;;;;;;4957303;29;20046;-78
2021/01/04 09:55:33;;;;;;;0.20;0.20;;;;;;;;;;4960236;28;20035;-78
2021/01/04 09:58:00;;;;;;;0.30;0.30;;;;;;;;;;4955144;29;20354;-79
2021/01/04 10:00:26;;;;;;;0.30;0.30;;;;;;;;;;4926912;29;20077;-79
2021/01/04 10:02:58;;;;;;;0.30;0.30;;;;;;;;;;4957796;29;20062;-79
2021/01/04 10:05:26;;;;;;;0.30;0.30;;;;;;;;;;4973817;28;20015;-78
2021/01/04 10:07:51;;;;;;;0.30;0.30;;;;;;;;;;4988534;28;20048;-79
2021/01/04 10:10:18;;;;;;;0.30;0.30;;;;;;;;;;4977829;28;20022;-78
2021/01/04 10:12:44;;;;;;;0.30;0.30;;;;;;;;;;4957139;28;20023;-78
2021/01/04 10:15:16;;;;;;;0.30;0.30;;;;;;;;;;4955966;29;20396;-78
2021/01/04 10:17:43;;;;;;;0.30;0.30;;;;;;;;;;4940874;29;20035;-78
2021/01/04 10:20:29;;;;;;;0.30;0.30;;;;;;;;;;4957795;29;20023;-78
2021/01/04 10:22:54;;;;;;;0.30;0.30;;;;;;;;;;4946104;28;20043;-78
2021/01/04 10:25:22;;;;;;;0.30;0.30;;;;;;;;;;4976969;28;20388;-79
2021/01/04 10:27:50;;;;;;;0.30;0.30;;;;;;;;;;4979944;28;20053;-78
2021/01/04 10:30:15;;;;;;;0.30;0.30;;;;;;;;;;4959220;28;20108;-78
2021/01/04 10:32:41;;;;;;;0.30;0.30;;;;;;;;;;4974284;28;20113;-77
2021/01/04 10:35:17;;;;;;;0.30;0.30;;;;;;;;;;4976558;28;20061;-78
2021/01/04 10:37:51;;;;;;;0.30;0.30;;;;;;;;;;4963951;28;20042;-79
2021/01/04 10:40:18;;;;;;;0.20;0.20;;;;;;;;;;4965204;28;20019;-78
2021/01/04 10:42:44;;;;;;;0.30;0.30;;;;;;;;;;4971637;28;20028;-76
2021/01/04 10:45:10;;;;;;;0.30;0.30;;;;;;;;;;4961715;28;20037;-77
2021/01/04 10:47:41;;;;;;;0.30;0.30;;;;;;;;;;4976715;28;20015;-76
2021/01/04 10:50:25;;;;;;;0.30;0.30;;;;;;;;;;4973736;28;20026;-76
2021/01/04 10:52:55;;;;;;;0.20;0.20;;;;;;;;;;4975943;28;20345;-76
2021/01/04 10:55:21;;;;;;;0.30;0.30;;;;;;;;;;4956132;28;20031;-75
2021/01/04 10:57:48;;;;;;;0.20;0.20;;;;;;;;;;4957616;28;20054;-74
2021/01/04 11:00:15;;;;;;;0.30;0.30;;;;;;;;;;4955123;28;20114;-75
2021/01/04 11:02:44;;;;;;;0.20;0.20;;;;;;;;;;4967117;28;20027;-74
2021/01/04 11:05:09;;;;;;;0.30;0.30;;;;;;;;;;4957711;28;20544;-75
2021/01/04 11:07:35;;;;;;;0.30;0.30;;;;;;;;;;4957865;28;20110;-75
2021/01/04 11:10:14;;;;;;;0.30;0.30;;;;;;;;;;4966619;28;20098;-75
2021/01/04 11:12:46;;;;;;;0.22;0.22;;;;;;;;;;4957609;28;20029;-74
2021/01/04 11:15:19;;;;;;;0.30;0.30;;;;;;;;;;4957797;28;20034;-74
2021/01/04 11:17:44;;;;;;;0.20;0.20;;;;;;;;;;4957259;28;20365;-75
2021/01/04 11:20:11;;;;;;;0.30;0.30;;;;;;;;;;4962327;28;20085;-76
2021/01/04 11:22:37;;;;;;;0.30;0.30;;;;;;;;;;4971782;28;20279;-76
2021/01/04 11:25:02;;;;;;;0.30;0.30;;;;;;;;;;4959816;28;20093;-76
2021/01/04 11:27:28;;;;;;;0.30;0.30;;;;;;;;;;4975883;28;20022;-76
2021/01/04 11:29:53;;;;;;;0.30;0.30;;;;;;;;;;4960189;28;20018;-77
2021/01/04 11:32:19;;;;;;;0.30;0.30;;;;;;;;;;4976360;28;20018;-76
2021/01/04 11:34:48;;;;;;;0.30;0.30;;;;;;;;;;4976310;28;20463;-76
2021/01/04 11:37:14;;;;;;;0.30;0.30;;;;;;;;;;4959953;28;20019;-76
2021/01/04 11:39:39;;;;;;;0.30;0.30;;;;;;;;;;4962854;28;20406;-76
2021/01/04 11:42:05;;;;;;;0.30;0.30;;;;;;;;;;4966143;28;20015;-76
2021/01/04 11:44:30;;;;;;;0.30;0.30;;;;;;;;;;4976009;28;20018;-76
2021/01/04 11:46:56;;;;;;;0.30;0.30;;;;;;;;;;4976185;28;20046;-76
2021/01/04 11:49:21;;;;;;;0.30;0.30;;;;;;;;;;4973017;28;20027;-76
2021/01/04 11:51:48;;;;;;;0.30;0.30;;;;;;;;;;4956137;28;20022;-76
2021/01/04 11:54:14;;;;;;;0.20;0.20;;;;;;;;;;4976250;28;20022;-77
2021/01/04 11:56:39;;;;;;;0.30;0.30;;;;;;;;;;4959718;28;20505;-76
2021/01/04 11:59:04;;;;;;;0.30;0.30;;;;;;;;;;4993547;28;20018;-76
2021/01/04 12:01:33;;;;;;;0.30;0.30;;;;;;;;;;4956650;28;20109;-76
2021/01/04 12:03:58;;;;;;;0.30;0.30;;;;;;;;;;4954286;28;20073;-76
2021/01/04 12:06:24;;;;;;;0.30;0.30;;;;;;;;;;4976131;28;20018;-76
2021/01/04 12:08:49;;;;;;;0.20;0.20;;;;;;;;;;4976188;28;20262;-76
2021/01/04 12:11:15;;;;;;;0.30;0.30;;;;;;;;;;4975692;28;20022;-77
2021/01/04 12:13:40;;;;;;;0.30;0.30;;;;;;;;;;4991998;28;20077;-76
2021/01/04 12:16:05;;;;;;;0.30;0.30;;;;;;;;;;4975965;28;20022;-76
2021/01/04 12:18:31;;;;;;;0.30;0.30;;;;;;;;;;4975870;28;20030;-76
2021/01/04 12:20:56;;;;;;;0.30;0.30;;;;;;;;;;4956590;28;20031;-76
2021/01/04 12:23:21;;;;;;;0.20;0.20;;;;;;;;;;4967490;28;20065;-76
2021/01/04 12:25:47;;;;;;;0.30;0.30;;;;;;;;;;4973556;28;20026;-75
2021/01/04 12:28:12;;;;;;;0.30;0.30;;;;;;;;;;4957289;28;20042;-75
2021/01/04 12:30:38;;;;;;;0.30;0.30;;;;;;;;;;4973406;28;20023;-75
2021/01/04 12:33:04;;;;;;;0.30;0.30;;;;;;;;;;4974379;28;20023;-75
2021/01/04 12:35:29;;;;;;;0.20;0.20;;;;;;;;;;4957389;28;20026;-74
2021/01/04 12:37:54;;;;;;;0.20;0.20;;;;;;;;;;4957085;28;20027;-75
2021/01/04 12:40:21;;;;;;;0.20;0.20;;;;;;;;;;4957098;28;20031;-74
2021/01/04 12:42:47;;;;;;;0.30;0.30;;;;;;;;;;4973332;28;20034;-75
2021/01/04 12:45:12;;;;;;;0.28;0.28;;;;;;;;;;4973096;28;20026;-75
2021/01/04 12:47:38;;;;;;;0.30;0.30;;;;;;;;;;4957070;28;20018;-75
2021/01/04 12:50:04;;;;;;;0.20;0.20;;;;;;;;;;4974346;28;20015;-75
2021/01/04 12:52:29;;;;;;;0.20;0.20;;;;;;;;;;4973036;28;20027;-75
2021/01/04 12:54:55;;;;;;;0.30;0.30;;;;;;;;;;4978940;28;20061;-78
2021/01/04 12:57:24;;;;;;;0.30;0.30;;;;;;;;;;4963133;28;20026;-78
2021/01/04 12:59:49;;;;;;;0.30;0.30;;;;;;;;;;4978782;28;20029;-78
2021/01/04 13:02:14;;;;;;;0.30;0.30;;;;;;;;;;4980978;28;20015;-79
2021/01/04 13:04:40;;;;;;;0.20;0.20;;;;;;;;;;4962616;28;20031;-79
2021/01/04 13:07:06;;;;;;;0.30;0.30;;;;;;;;;;4980354;28;20046;-78
2021/01/04 13:09:31;;;;;;;0.30;0.30;;;;;;;;;;4963659;28;20028;-79
2021/01/04 13:11:57;;;;;;;0.30;0.30;;;;;;;;;;4997605;28;20037;-79
2021/01/04 13:14:23;;;;;;;0.30;0.30;;;;;;;;;;4983207;28;20019;-78
2021/01/04 13:16:48;;;;;;;0.30;0.30;;;;;;;;;;4985098;28;20027;-79
2021/01/04 13:19:16;;;;;;;0.20;0.20;;;;;;;;;;4966724;28;20027;-79
2021/01/04 13:21:41;;;;;;;0.20;0.20;;;;;;;;;;4967669;28;20034;-79
2021/01/04 13:24:08;;;;;;;0.22;0.22;;;;;;;;;;4968368;28;20090;-79
2021/01/04 13:26:43;;;;;;;0.30;0.30;;;;;;;;;;4951814;28;20048;-78
2021/01/04 13:29:09;;;;;;;0.30;0.30;;;;;;;;;;4968562;28;20015;-79
2021/01/04 13:31:35;;;;;;;0.30;0.30;;;;;;;;;;4984777;28;20034;-79
2021/01/04 13:34:00;;;;;;;0.30;0.30;;;;;;;;;;4984754;28;20018;-79
2021/01/04 13:36:26;;;;;;;0.30;0.30;;;;;;;;;;4968376;28;20061;-79
2021/01/04 13:38:51;;;;;;;0.20;0.20;;;;;;;;;;4984459;28;20074;-79
2021/01/04 13:41:17;;;;;;;0.30;0.30;;;;;;;;;;4985308;28;20356;-79
2021/01/04 13:43:42;;;;;;;0.20;0.20;;;;;;;;;;4974788;28;20029;-80
2021/01/04 13:46:08;;;;;;;0.30;0.30;;;;;;;;;;4992931;28;20011;-79
2021/01/04 13:48:33;;;;;;;0.30;0.30;;;;;;;;;;4977616;28;20022;-78
2021/01/04 13:50:59;;;;;;;0.30;0.30;;;;;;;;;;4994195;28;20011;-79
2021/01/04 13:53:26;;;;;;;0.30;0.30;;;;;;;;;;4995558;28;20015;-79
2021/01/04 13:55:51;;;;;;;0.20;0.20;;;;;;;;;;4989879;28;20510;-78
2021/01/04 13:58:16;;;;;;;0.20;0.20;;;;;;;;;;4964793;28;20035;-78
2021/01/04 14:00:42;;;;;;;0.30;0.30;;;;;;;;;;4981308;28;20038;-78
2021/01/04 14:03:07;;;;;;;0.30;0.30;;;;;;;;;;4982014;28;20027;-79
2021/01/04 14:05:32;;;;;;;0.30;0.30;;;;;;;;;;4978216;28;20035;-78
2021/01/04 14:07:58;;;;;;;0.30;0.30;;;;;;;;;;4974699;28;20357;-78
2021/01/04 14:10:23;;;;;;;0.30;0.30;;;;;;;;;;4982003;28;20025;-79
2021/01/04 14:12:49;;;;;;;0.20;0.20;;;;;;;;;;4981600;28;20027;-78
2021/01/04 14:15:15;;;;;;;0.30;0.30;;;;;;;;;;4998169;28;20030;-79
2021/01/04 14:17:40;;;;;;;0.30;0.30;;;;;;;;;;4965010;28;20023;-78
2021/01/04 14:20:06;;;;;;;0.20;0.20;;;;;;;;;;4980507;28;20046;-78
2021/01/04 14:22:31;;;;;;;0.30;0.30;;;;;;;;;;4980867;28;20034;-78
2021/01/04 14:24:57;;;;;;;0.30;0.30;;;;;;;;;;4979054;28;20042;-78
2021/01/04 14:27:22;;;;;;;0.30;0.30;;;;;;;;;;4980232;28;20031;-78
2021/01/04 14:29:48;;;;;;;0.30;0.30;;;;;;;;;;4979057;28;20106;-78
2021/01/04 14:32:13;;;;;;;0.30;0.30;;;;;;;;;;4979598;28;20011;-78
2021/01/04 14:34:41;;;;;;;0.30;0.30;;;;;;;;;;4962385;28;20027;-78
2021/01/04 14:37:06;;;;;;;0.30;0.30;;;;;;;;;;4978983;28;20496;-79
2021/01/04 14:39:32;;;;;;;0.30;0.30;;;;;;;;;;4963164;28;20052;-79
2021/01/04 14:42:06;;;;;;;0.30;0.30;;;;;;;;;;4962942;28;20039;-78
2021/01/04 14:44:32;;;;;;;0.30;0.30;;;;;;;;;;4979177;28;20486;-78
2021/01/04 14:47:02;;;;;;;0.30;0.30;;;;;;;;;;4980578;28;20025;-78
2021/01/04 14:49:27;;;;;;;0.30;0.30;;;;;;;;;;4980390;28;20015;-78
2021/01/04 14:51:52;;;;;;;0.25;0.25;;;;;;;;;;4965021;28;20166;-78
2021/01/04 14:54:18;;;;;;;0.28;0.28;;;;;;;;;;4982493;28;20038;-77
2021/01/04 14:56:43;;;;;;;0.30;0.30;;;;;;;;;;4979633;28;20046;-78
2021/01/04 14:59:09;;;;;;;0.30;0.30;;;;;;;;;;4976802;28;20031;-78